Terminal Aerodrome Forecast
Issued by NWS Glasgow, MT

Home | Current Version | Previous Version | Text Only | Print | Product List | Glossary On
Versions: 1 2 3 4 5 6 7 8 9 10 11 12 13 14
000
FTUS45 KGGW 311700
TAFGGW
TAF
KGGW 311729Z 3118/0118 20010KT P6SM FEW100 SCT300
     FM010000 03012KT P6SM VCTS SCT080CB BKN250
     FM010600 07006KT P6SM FEW300
     FM011400 03009KT P6SM SKC=

USA.gov is the U.S. government's official web portal to all federal, state and local government web resources and services.